Latest Coastal Weather Observations for Pirlangimpi (Garden Point)

IDD60701

Issued at 7:01 pm CST Tuesday 18 June 2024 (issued every 10 minutes, with the page automatically refreshed every 10 minutes)

About coastal observations | Map of coastal stations | Coastal observations for NT | Marine services | Other Formats
Station Details ID: 014142 Name: PIRLANGIMPI AIRPORT Lat: -11.40 Lon: 130.42 Height: 18.3 m
Data from the previous 72 hours. | See also: Recent months at Pirlangimpi (Garden Point)
Date/Time
CST
Wind Sea
Height
m
Swell Vis
km
Cloud Weather Temp
°C
Press
MSL
hPa
Rain since
9am
mm
Dir  Spd
kts
Gust
kts
Height
m
Period
s
Dir
18/07:00pm ENE 3 5 - - - - - - - 22.4 1012.0 0.0
18/06:30pm E 3 5 - - - - - - - 25.1 1011.8 0.0
18/06:00pm E 3 4 - - - - - - - 26.9 1011.6 0.0
18/05:30pm ESE 3 5 - - - - - - - 28.5 1011.3 0.0
18/05:00pm E 5 8 - - - - - - - 30.1 1011.1 0.0
18/04:30pm E 4 10 - - - - - - - 31.2 1010.9 0.0
18/04:00pm E 5 8 - - - - - - - 31.9 1010.9 0.0
18/03:30pm E 6 9 - - - - - - - 31.7 1010.9 0.0
18/03:00pm ENE 4 7 - - - - - - - 32.6 1011.0 0.0
18/02:30pm ESE 6 9 - - - - - - - 32.0 1011.3 0.0
18/02:00pm E 6 12 - - - - - - - 32.5 1011.7 0.0
18/01:30pm SE 8 11 - - - - - - - 31.7 1012.1 0.0
18/01:00pm E 8 13 - - - - - - - 32.4 1012.4 0.0
18/12:30pm ENE 9 14 - - - - - - - 31.7 1013.0 0.0
18/12:00pm E 8 12 - - - - - - - 31.0 1013.7 0.0
18/11:30am ESE 7 13 - - - - - - - 29.8 1014.1 0.0
18/11:00am ESE 6 10 - - - - - - - 28.8 1014.7 0.0
18/10:30am E 6 10 - - - - - - - 28.1 1015.1 0.0
18/10:00am SSE 3 6 - - - - - - - 26.3 1015.1 0.0
18/09:30am SE 4 7 - - - - - - - 24.4 1015.3 0.0
18/09:00am SSE 2 2 - - - - - - - 22.5 1015.4 0.0
18/08:30am S 2 2 - - - - - - - 21.0 1015.2 0.0
18/08:00am CALM 0 0 - - - - - - - 18.1 1015.0 0.0
18/07:30am SE 1 2 - - - - - - - 17.2 1014.7 0.0
18/07:00am SE 1 2 - - - - - - - 17.3 1014.5 0.0
18/06:30am SSE 1 2 - - - - - - - 18.1 1014.3 0.0
18/06:00am SSE 2 3 - - - - - - - 18.2 1014.2 0.0
18/05:30am SSE 2 2 - - - - - - - 18.2 1014.1 0.0
18/05:00am SSE 1 2 - - - - - - - 18.6 1014.0 0.0
18/04:30am SE 2 3 - - - - - - - 18.9 1013.9 0.0
18/04:00am SE 2 4 - - - - - - - 19.6 1013.8 0.0
18/03:30am SE 2 3 - - - - - - - 19.7 1013.8 0.0
18/03:00am SE 2 3 - - - - - - - 20.1 1013.9 0.0
18/02:30am SE 3 4 - - - - - - - 19.9 1014.0 0.0
18/02:00am SE 3 5 - - - - - - - 20.2 1014.2 0.0
18/01:30am SE 3 4 - - - - - - - 20.2 1014.5 0.0
18/01:00am SE 1 3 - - - - - - - 18.9 1014.6 0.0
18/12:30am CALM 0 0 - - - - - - - 19.4 1014.6 0.0
18/12:00am CALM 0 0 - - - - - - - 19.6 1014.6 0.0
 
Date/Time
CST
Wind Sea
Height
m
Swell Vis
km
Cloud Weather Temp
°C
Press
MSL
hPa
Rain since
9am
mm
Dir  Spd
kts
Gust
kts
Height
m
Period
s
Dir
17/11:30pm WSW 1 3 - - - - - - - 19.9 1014.6 0.0
17/11:00pm CALM 0 3 - - - - - - - 19.5 1014.4 0.0
17/10:30pm CALM 0 0 - - - - - - - 19.8 1014.4 0.0
17/10:00pm CALM 0 0 - - - - - - - 20.7 1014.3 0.0
17/09:30pm CALM 0 2 - - - - - - - 22.1 1014.2 0.0
17/09:00pm NE 3 6 - - - - - - - 22.1 1013.9 0.0
17/08:30pm NNE 2 3 - - - - - - - 21.3 1013.8 0.0
17/08:00pm NE 1 2 - - - - - - - 21.9 1013.4 0.0
17/07:30pm CALM 0 1 - - - - - - - 22.5 1013.1 0.0
17/07:00pm E 2 3 - - - - - - - 23.9 1012.6 0.0
17/06:30pm ESE 4 5 - - - - - - - 27.2 1012.3 0.0
17/06:00pm E 5 9 - - - - - - - 28.4 1012.1 0.0
17/05:30pm E 6 11 - - - - - - - 29.6 1011.7 0.0
17/05:00pm E 7 12 - - - - - - - 31.2 1011.4 0.0
17/04:30pm E 8 13 - - - - - - - 32.1 1011.2 0.0
17/04:00pm ESE 6 10 - - - - - - - 32.5 1011.2 0.0
17/03:30pm ESE 6 9 - - - - - - - 32.3 1011.3 0.0
17/03:00pm ESE 8 14 - - - - - - - 32.4 1011.5 0.0
17/02:30pm ESE 8 12 - - - - - - - 32.0 1011.8 0.0
17/02:00pm SE 7 13 - - - - - - - 32.0 1012.2 0.0
17/01:30pm E 8 13 - - - - - - - 33.1 1012.6 0.0
17/01:00pm E 11 17 - - - - - - - 32.5 1013.2 0.0
17/12:30pm SE 6 11 - - - - - - - 31.9 1013.6 0.0
17/12:00pm ESE 8 14 - - - - - - - 31.0 1014.2 0.0
17/11:30am ESE 9 14 - - - - - - - 29.8 1014.6 0.0
17/11:00am SE 7 11 - - - - - - - 28.9 1014.9 0.0
17/10:30am E 7 12 - - - - - - - 28.1 1015.2 0.0
17/10:00am ESE 8 13 - - - - - - - 26.8 1015.3 0.0
17/09:30am E 6 10 - - - - - - - 24.9 1015.2 0.0
17/09:00am E 4 6 - - - - - - - 22.9 1015.1 0.0
17/08:30am E 4 6 - - - - - - - 21.4 1015.1 0.0
17/08:00am E 2 3 - - - - - - - 19.8 1015.0 0.0
17/07:30am ESE 2 2 - - - - - - - 19.5 1014.7 0.0
17/07:00am E 2 3 - - - - - - - 20.0 1014.5 0.0
17/06:30am ESE 3 5 - - - - - - - 20.4 1014.4 0.0
17/06:00am E 3 4 - - - - - - - 20.1 1014.3 0.0
17/05:30am ESE 2 2 - - - - - - - 20.0 1014.2 0.0
17/05:00am ESE 3 4 - - - - - - - 20.6 1014.1 0.0
17/04:30am ESE 3 4 - - - - - - - 20.4 1014.0 0.0
17/04:00am ESE 3 4 - - - - - - - 20.2 1014.1 0.0
17/03:30am ESE 2 3 - - - - - - - 20.0 1014.3 0.0
17/03:00am SE 1 2 - - - - - - - 20.1 1014.4 0.0
17/02:30am SSE 1 2 - - - - - - - 20.6 1014.6 0.0
17/02:00am S 2 3 - - - - - - - 20.9 1014.6 0.0
17/01:30am SSE 3 5 - - - - - - - 20.8 1014.9 0.0
17/01:00am E 1 2 - - - - - - - 19.8 1014.9 0.0
17/12:30am SSE 2 3 - - - - - - - 19.8 1014.8 0.0
17/12:00am CALM 0 0 - - - - - - - 20.1 1014.5 0.0
 
Date/Time
CST
Wind Sea
Height
m
Swell Vis
km
Cloud Weather Temp
°C
Press
MSL
hPa
Rain since
9am
mm
Dir  Spd
kts
Gust
kts
Height
m
Period
s
Dir
16/11:30pm CALM 0 0 - - - - - - - 20.9 1014.6 0.0
16/11:00pm NNE 1 3 - - - - - - - 21.5 1014.7 0.0
16/10:30pm NE 2 3 - - - - - - - 21.5 1014.8 0.0
16/10:00pm NE 1 3 - - - - - - - 21.5 1015.1 0.0
16/09:30pm CALM 0 0 - - - - - - - 22.2 1015.1 0.0
16/09:00pm NE 3 7 - - - - - - - 22.9 1014.7 0.0
16/08:30pm NE 2 3 - - - - - - - 22.2 1014.5 0.0
16/08:00pm NE 2 3 - - - - - - - 22.7 1014.5 0.0
16/07:30pm NE 1 2 - - - - - - - 23.4 1014.4 0.0
16/07:00pm ENE 4 6 - - - - - - - 25.2 1014.2 0.0
16/06:30pm ENE 3 5 - - - - - - - 26.1 1013.8 0.0
16/06:00pm ENE 4 8 - - - - - - - 27.1 1013.3 0.0
16/05:30pm ENE 6 11 - - - - - - - 28.2 1013.0 0.0
16/05:00pm NE 5 12 - - - - - - - 29.9 1012.7 0.0
16/04:30pm ENE 5 9 - - - - - - - 31.9 1012.4 0.0
16/04:00pm E 7 11 - - - - - - - 32.5 1012.2 0.0
16/03:30pm E 7 12 - - - - - - - 32.9 1012.2 0.0
16/03:00pm E 6 13 - - - - - - - 33.1 1012.4 0.0
16/02:30pm E 4 9 - - - - - - - 33.4 1012.5 0.0
16/02:00pm ESE 7 11 - - - - - - - 32.6 1012.9 0.0
16/01:30pm ESE 7 10 - - - - - - - 31.8 1013.2 0.0
16/01:00pm SE 7 11 - - - - - - - 31.0 1013.7 0.0
16/12:30pm SE 6 9 - - - - - - - 30.3 1014.3 0.0
16/12:00pm ENE 5 9 - - - - - - - 30.9 1014.7 0.0
16/11:30am E 7 13 - - - - - - - 30.3 1015.3 0.0
16/11:00am E 8 14 - - - - - - - 28.6 1015.5 0.0
16/10:30am E 6 11 - - - - - - - 28.3 1015.7 0.0
16/10:00am ESE 6 9 - - - - - - - 27.0 1015.8 0.0
16/09:30am E 6 10 - - - - - - - 25.1 1015.9 0.0
16/09:00am ESE 3 6 - - - - - - - 24.1 1015.7 0.0
16/08:30am CALM 0 0 - - - - - - - 22.3 1015.3 0.0
16/08:00am CALM 0 0 - - - - - - - 20.6 1015.0 0.0
16/07:30am CALM 0 0 - - - - - - - 20.1 1014.7 0.0
16/07:00am SE 1 2 - - - - - - - 20.5 1014.3 0.0
16/06:30am SE 2 2 - - - - - - - 20.7 1014.1 0.0
16/06:00am SE 2 3 - - - - - - - 20.9 1013.7 0.0
16/05:30am SE 2 3 - - - - - - - 21.1 1013.5 0.0
16/05:00am SE 2 3 - - - - - - - 21.3 1013.4 0.0
16/04:30am SE 2 3 - - - - - - - 21.5 1013.2 0.0
16/04:00am SSE 3 4 - - - - - - - 21.6 1013.2 0.0
16/03:30am SSE 3 4 - - - - - - - 21.5 1013.1 0.0
16/03:00am SSE 2 3 - - - - - - - 21.3 1013.2 0.0
16/02:30am CALM 0 0 - - - - - - - 20.8 1013.2 0.0
16/02:00am CALM 0 1 - - - - - - - 21.6 1013.0 0.0
16/01:30am ENE 2 3 - - - - - - - 22.1 1013.2 0.0
16/01:00am ENE 2 3 - - - - - - - 22.9 1013.2 0.0
16/12:30am NE 4 6 - - - - - - - 23.4 1013.2 0.0
16/12:00am NE 5 7 - - - - - - - 23.6 1013.1 0.0
 
Date/Time
CST
Wind Sea
Height
m
Swell Vis
km
Cloud Weather Temp
°C
Press
MSL
hPa
Rain since
9am
mm
Dir  Spd
kts
Gust
kts
Height
m
Period
s
Dir
15/11:30pm NE 5 10 - - - - - - - 23.3 1013.1 0.0
15/11:00pm NE 4 8 - - - - - - - 22.6 1013.3 0.0
15/10:30pm NE 3 4 - - - - - - - 22.3 1013.5 0.0
15/10:00pm NE 3 4 - - - - - - - 22.3 1013.6 0.0
15/09:30pm NE 3 5 - - - - - - - 22.8 1013.3 0.0
15/09:00pm NE 2 5 - - - - - - - 22.1 1013.0 0.0
15/08:30pm CALM 0 0 - - - - - - - 22.3 1012.8 0.0
15/08:00pm CALM 0 0 - - - - - - - 22.7 1012.5 0.0
15/07:30pm NE 1 2 - - - - - - - 23.8 1012.1 0.0

Other formats

Comma delimited format used in spreadsheet applications
http://www.bom.gov.au/fwo/IDD60701/IDD60701.94119.axf

JavaScript Object Notation format (JSON) in row-major order
http://www.bom.gov.au/fwo/IDD60701/IDD60701.94119.json

Data quality

Most of these data are generated automatically and are frequently updated. Quality checks on data are not normally performed. It is possible for incorrect values to appear. Refer to information at About Latest Weather Observations and please check the disclaimer before using these data.